createdAt,value
2023-01-30T00:02:57.481Z,100647.97
2023-01-30T00:08:00.546Z,100645.53
2023-01-30T00:13:03.927Z,100644.72
2023-01-30T00:18:06.736Z,100648.28
2023-01-30T00:23:09.710Z,100646.53
2023-01-30T00:28:12.593Z,100645.63
2023-01-30T00:33:15.507Z,100642.13
2023-01-30T00:38:19.664Z,100639.50
2023-01-30T00:43:40.888Z,100641.28
2023-01-30T00:48:43.944Z,100632.66
2023-01-30T00:53:46.802Z,100628.06
2023-01-30T00:58:50.221Z,100615.97
2023-01-30T01:03:53.416Z,100618.63
2023-01-30T01:08:56.507Z,100615.22
2023-01-30T01:14:01.406Z,100612.78
2023-01-30T01:19:05.509Z,100612.78
2023-01-30T01:24:14.499Z,100606.00
2023-01-30T01:29:17.642Z,100601.78
2023-01-30T01:34:20.562Z,100591.47
2023-01-30T01:39:23.734Z,100589.00
2023-01-30T01:44:26.561Z,100581.34
2023-01-30T01:49:35.370Z,100563.25
2023-01-30T01:55:02.662Z,100552.91
2023-01-30T02:00:11.731Z,100534.84
2023-01-30T02:05:18.001Z,100524.66
2023-01-30T02:10:29.685Z,100522.81
2023-01-30T02:15:33.437Z,100522.84
2023-01-30T02:21:11.684Z,100512.59
2023-01-30T02:26:29.571Z,100516.09
2023-01-30T02:31:55.147Z,100498.81
2023-01-30T02:37:51.968Z,100488.31
2023-01-30T02:43:24.438Z,100478.56
2023-01-30T02:48:33.329Z,100473.38
2023-01-30T02:53:36.795Z,100466.69
2023-01-30T02:58:48.732Z,100460.88
2023-01-30T03:04:31.266Z,100465.94
2023-01-30T03:09:45.506Z,100456.59
2023-01-30T03:14:54.720Z,100454.13
2023-01-30T03:19:59.012Z,100446.47
2023-01-30T03:25:02.044Z,100446.59
2023-01-30T03:30:05.826Z,100443.25
2023-01-30T03:35:09.607Z,100444.00
2023-01-30T03:40:15.301Z,100442.19
2023-01-30T03:45:18.630Z,100441.25
2023-01-30T03:50:21.796Z,100439.38
2023-01-30T03:55:24.779Z,100421.38
2023-01-30T04:00:27.791Z,100426.59
2023-01-30T04:05:30.842Z,100426.59
2023-01-30T04:10:33.841Z,100415.53
2023-01-30T04:15:36.844Z,100413.88
2023-01-30T04:20:39.859Z,100410.59
2023-01-30T04:25:46.470Z,100402.16
2023-01-30T04:30:49.538Z,100404.84
2023-01-30T04:35:58.450Z,100382.47
2023-01-30T04:41:01.722Z,100379.03
2023-01-30T04:46:04.865Z,100372.91
2023-01-30T04:51:08.397Z,100375.94
2023-01-30T04:56:11.310Z,100371.94
2023-01-30T05:01:35.935Z,100369.75
2023-01-30T05:06:39.507Z,100362.59
2023-01-30T05:11:42.665Z,100354.66
2023-01-30T05:16:45.606Z,100364.19
2023-01-30T05:21:48.442Z,100351.41
2023-01-30T05:26:51.392Z,100356.97
2023-01-30T05:31:54.391Z,100357.31
2023-01-30T05:36:57.358Z,100351.56
2023-01-30T05:42:00.401Z,100339.69
2023-01-30T05:47:03.448Z,100348.47
2023-01-30T05:52:06.377Z,100344.22
2023-01-30T05:57:09.278Z,100342.88
2023-01-30T06:02:12.345Z,100342.34
2023-01-30T06:07:15.305Z,100344.47
2023-01-30T06:12:18.282Z,100335.34
2023-01-30T06:17:21.230Z,100344.41
2023-01-30T06:22:24.458Z,100343.81
2023-01-30T06:27:27.521Z,100344.75
2023-01-30T06:32:30.452Z,100330.06
2023-01-30T06:37:33.740Z,100343.19
2023-01-30T06:42:36.666Z,100329.72
2023-01-30T06:47:51.937Z,100331.50
2023-01-30T06:52:55.990Z,100333.84
2023-01-30T06:58:06.441Z,100318.50
2023-01-30T07:03:17.058Z,100324.28
2023-01-30T07:08:22.560Z,100317.44
2023-01-30T07:13:26.917Z,100321.03
2023-01-30T07:18:29.940Z,100307.78
2023-01-30T07:23:32.812Z,100308.59
2023-01-30T07:28:35.691Z,100308.63
2023-01-30T07:33:38.587Z,100314.13
2023-01-30T07:38:41.628Z,100309.75
2023-01-30T07:43:44.508Z,100295.91
2023-01-30T07:48:47.696Z,100287.38
2023-01-30T07:53:51.444Z,100288.38
2023-01-30T07:58:55.862Z,100291.75
2023-01-30T08:03:59.375Z,100288.50
2023-01-30T08:09:02.283Z,100242.00
2023-01-30T08:14:05.202Z,100219.53
2023-01-30T08:19:08.175Z,100216.66
2023-01-30T08:24:11.020Z,100204.13
2023-01-30T08:29:13.996Z,100219.25
2023-01-30T08:34:16.958Z,100220.69
2023-01-30T08:39:20.246Z,100213.72
2023-01-30T08:44:23.260Z,100208.84
2023-01-30T08:49:26.283Z,100204.88
2023-01-30T08:54:29.264Z,100218.25
2023-01-30T08:59:32.220Z,100201.94
2023-01-30T09:04:35.261Z,100200.19
2023-01-30T09:09:38.709Z,100193.94
2023-01-30T09:14:41.835Z,100186.69
2023-01-30T09:19:45.041Z,100177.31
2023-01-30T09:24:48.092Z,100188.97
2023-01-30T09:29:51.545Z,100177.41
2023-01-30T09:34:54.516Z,100154.66
2023-01-30T09:39:57.515Z,100141.50
2023-01-30T09:45:53.548Z,100127.31
2023-01-30T09:51:02.374Z,100134.19
2023-01-30T09:56:06.367Z,100118.97
2023-01-30T10:01:22.611Z,100107.13
2023-01-30T10:06:25.564Z,100095.03
2023-01-30T10:11:43.516Z,100086.91
2023-01-30T10:17:38.291Z,100079.56
2023-01-30T10:23:02.433Z,100070.06
2023-01-30T10:28:35.271Z,100059.50
2023-01-30T10:34:06.601Z,100036.44
2023-01-30T10:39:49.649Z,100028.47
2023-01-30T10:45:15.192Z,100009.13
2023-01-30T10:50:40.040Z,100003.91
2023-01-30T10:56:01.506Z,99980.50
2023-01-30T11:01:20.829Z,99970.44
2023-01-30T11:06:27.156Z,99954.03
2023-01-30T11:11:47.537Z,99950.03
2023-01-30T11:51:54.971Z,99851.69
2023-01-30T11:57:01.941Z,99848.50
2023-01-30T12:02:38.432Z,99845.69
2023-01-30T12:07:41.489Z,99853.53
2023-01-30T12:12:52.044Z,99835.97
2023-01-30T12:18:18.744Z,99812.47
2023-01-30T12:23:46.442Z,99797.13
2023-01-30T12:28:57.239Z,99790.34
2023-01-30T12:34:00.794Z,99803.88
2023-01-30T12:39:14.596Z,99806.50
2023-01-30T12:44:39.225Z,99801.75
2023-01-30T12:50:06.620Z,99794.34
2023-01-30T12:55:46.049Z,99791.63
2023-01-30T13:01:22.430Z,99779.97
2023-01-30T13:07:01.915Z,99751.41
2023-01-30T13:12:33.117Z,99737.16
2023-01-30T13:18:20.313Z,99744.63
2023-01-30T13:24:03.387Z,99737.13
2023-01-30T13:29:14.256Z,99732.97
2023-01-30T13:34:30.573Z,99739.88
2023-01-30T13:40:00.796Z,99741.31
2023-01-30T13:45:06.894Z,99733.81
2023-01-30T13:50:12.730Z,99728.47
2023-01-30T13:55:36.350Z,99705.88
2023-01-30T14:00:39.821Z,99703.97
2023-01-30T14:05:57.025Z,99708.13
2023-01-30T14:11:00.244Z,99713.97
2023-01-30T14:16:06.235Z,99725.38
2023-01-30T14:21:25.527Z,99721.09
2023-01-30T14:26:50.620Z,99730.84
2023-01-30T14:31:53.934Z,99729.34
2023-01-30T14:36:57.108Z,99723.41
2023-01-30T14:42:24.647Z,99723.28
2023-01-30T14:47:40.361Z,99721.00
2023-01-30T14:52:54.997Z,99729.16
2023-01-30T14:58:02.722Z,99730.44
2023-01-30T15:03:18.507Z,99723.19
2023-01-30T15:08:25.446Z,99716.75
2023-01-30T15:13:59.401Z,99715.69
2023-01-30T15:19:42.675Z,99718.16
2023-01-30T15:25:20.305Z,99719.84
2023-01-30T15:30:59.493Z,99723.19
2023-01-30T15:36:26.131Z,99730.72
2023-01-30T15:41:40.462Z,99729.75
2023-01-30T15:47:16.819Z,99730.22
2023-01-30T15:52:25.539Z,99734.09
2023-01-30T15:57:39.998Z,99723.84
2023-01-30T16:02:44.346Z,99725.88
2023-01-30T16:07:50.314Z,99722.31
2023-01-30T16:12:57.996Z,99724.69
2023-01-30T16:18:23.631Z,99733.97
2023-01-30T16:23:53.838Z,99743.34
2023-01-30T16:29:23.051Z,99761.63
2023-01-30T16:34:25.819Z,99763.78
2023-01-30T16:39:37.732Z,99758.03
2023-01-30T16:44:40.640Z,99760.03
2023-01-30T16:49:47.813Z,99754.28
2023-01-30T16:55:00.443Z,99761.28
2023-01-30T17:00:40.435Z,99751.59
2023-01-30T17:05:46.638Z,99764.28
2023-01-30T17:10:55.286Z,99756.38
2023-01-30T17:16:37.139Z,99750.09
2023-01-30T17:21:49.619Z,99749.03
2023-01-30T17:27:02.365Z,99744.09
2023-01-30T17:32:15.272Z,99746.47
2023-01-30T17:37:21.504Z,99744.59
2023-01-30T17:42:24.267Z,99742.50
2023-01-30T17:47:27.312Z,99732.31
2023-01-30T17:52:30.297Z,99726.50
2023-01-30T17:57:33.856Z,99732.13
2023-01-30T18:02:36.909Z,99740.34
2023-01-30T18:07:41.709Z,99751.66
2023-01-30T18:12:45.563Z,99748.72
2023-01-30T18:17:50.226Z,99758.00
2023-01-30T18:22:53.185Z,99751.94
2023-01-30T18:27:56.309Z,99747.63
2023-01-30T18:32:59.544Z,99746.72
2023-01-30T18:38:03.141Z,99750.75
2023-01-30T18:43:06.245Z,99739.34
2023-01-30T18:48:09.680Z,99748.66
2023-01-30T18:53:12.639Z,99752.13
2023-01-30T18:58:15.626Z,99764.16
2023-01-30T19:03:18.653Z,99765.00
2023-01-30T19:08:23.315Z,99761.28
2023-01-30T19:13:36.663Z,99776.53
2023-01-30T19:18:39.633Z,99752.22
2023-01-30T19:23:42.892Z,99748.28
2023-01-30T19:28:46.815Z,99742.31
2023-01-30T19:34:01.082Z,99759.00
2023-01-30T19:39:06.096Z,99753.41
2023-01-30T19:44:11.826Z,99777.94
2023-01-30T19:49:14.904Z,99781.13
2023-01-30T19:54:18.931Z,99764.03
2023-01-30T19:59:22.431Z,99749.63
2023-01-30T20:04:25.426Z,99739.38
2023-01-30T20:09:29.117Z,99740.22
2023-01-30T20:14:32.230Z,99737.22
2023-01-30T20:19:35.192Z,99716.53
2023-01-30T20:24:38.085Z,99705.91
2023-01-30T20:29:41.162Z,99713.16
2023-01-30T20:34:44.432Z,99706.41
2023-01-30T20:39:47.431Z,99710.47
2023-01-30T20:44:50.334Z,99689.16
2023-01-30T20:49:53.331Z,99701.31
2023-01-30T20:54:56.487Z,99685.34
2023-01-30T21:00:00.094Z,99685.94
2023-01-30T21:05:03.074Z,99684.16
2023-01-30T21:10:06.455Z,99687.44
2023-01-30T21:15:09.733Z,99684.19
2023-01-30T21:20:12.805Z,99706.25
2023-01-30T21:25:15.610Z,99697.13
2023-01-30T21:30:19.378Z,99686.09
2023-01-30T21:35:22.349Z,99689.44
2023-01-30T21:40:44.428Z,99679.31
2023-01-30T21:45:47.532Z,99677.31
2023-01-30T21:50:50.335Z,99685.78
2023-01-30T21:55:53.454Z,99686.69
2023-01-30T22:01:02.437Z,99708.13
2023-01-30T22:06:10.458Z,99704.09
2023-01-30T22:11:19.482Z,99699.22
2023-01-30T22:16:26.722Z,99695.63
2023-01-30T22:21:34.514Z,99692.38
2023-01-30T22:26:38.098Z,99687.75
2023-01-30T22:31:41.383Z,99680.72
2023-01-30T22:36:44.496Z,99664.00
2023-01-30T22:41:47.529Z,99668.97
2023-01-30T22:46:52.159Z,99660.38
2023-01-30T22:51:55.187Z,99665.94
2023-01-30T22:56:58.143Z,99664.25
2023-01-30T23:02:01.337Z,99663.16
2023-01-30T23:07:04.361Z,99636.34
2023-01-30T23:12:26.261Z,99647.56
2023-01-30T23:17:47.681Z,99636.34
2023-01-30T23:22:51.647Z,99627.28
2023-01-30T23:27:54.714Z,99641.81
2023-01-30T23:32:57.490Z,99625.63
2023-01-30T23:38:16.351Z,99645.69
2023-01-30T23:43:19.872Z,99655.50
2023-01-30T23:48:22.817Z,99653.44
2023-01-30T23:53:25.857Z,99615.84
2023-01-30T23:58:29.437Z,99622.50
